createdAt,value
2023-01-20T00:01:48.164Z,3.72
2023-01-20T00:04:19.211Z,3.80
2023-01-20T00:09:18.427Z,3.50
2023-01-20T00:11:48.858Z,3.88
2023-01-20T00:14:17.838Z,3.45
2023-01-20T00:16:46.822Z,3.35
2023-01-20T00:19:16.499Z,3.75
2023-01-20T00:21:45.499Z,3.65
2023-01-20T00:24:14.482Z,3.28
2023-01-20T00:26:43.453Z,4.15
2023-01-20T00:29:13.869Z,4.57
2023-01-20T00:31:43.260Z,4.22
2023-01-20T00:34:12.620Z,4.05
2023-01-20T00:36:41.610Z,3.70
2023-01-20T00:39:10.570Z,3.90
2023-01-20T00:41:39.919Z,3.22
2023-01-20T00:44:09.111Z,4.22
2023-01-20T00:46:39.547Z,3.70
2023-01-20T00:49:08.548Z,4.10
2023-01-20T00:51:37.548Z,3.35
2023-01-20T00:54:06.630Z,3.78
2023-01-20T00:56:35.675Z,3.42
2023-01-20T00:59:04.642Z,4.05
2023-01-20T01:01:34.198Z,3.40
2023-01-20T01:04:04.713Z,3.60
2023-01-20T01:06:33.760Z,4.10
2023-01-20T01:09:02.702Z,3.70
2023-01-20T01:11:31.688Z,3.42
2023-01-20T01:14:00.659Z,3.70
2023-01-20T01:16:29.665Z,3.50
2023-01-20T01:18:58.679Z,3.60
2023-01-20T01:21:29.142Z,3.72
2023-01-20T01:23:58.112Z,3.63
2023-01-20T01:26:27.292Z,3.88
2023-01-20T01:28:56.370Z,3.92
2023-01-20T01:31:25.375Z,3.78
2023-01-20T01:33:54.379Z,3.92
2023-01-20T01:36:23.424Z,3.40
2023-01-20T01:38:58.540Z,3.70
2023-01-20T01:41:28.416Z,3.30
2023-01-20T01:44:03.060Z,3.38
2023-01-20T01:46:32.251Z,3.65
2023-01-20T01:49:03.993Z,2.92
2023-01-20T01:51:37.629Z,3.72
2023-01-20T01:54:13.541Z,3.60
2023-01-20T01:56:44.748Z,3.55
2023-01-20T02:01:49.067Z,3.45
2023-01-20T02:04:21.120Z,3.90
2023-01-20T02:06:53.219Z,3.35
2023-01-20T02:09:24.999Z,3.40
2023-01-20T02:11:56.889Z,2.92
2023-01-20T02:14:30.416Z,3.28
2023-01-20T02:17:05.493Z,3.30
2023-01-20T02:20:17.930Z,3.58
2023-01-20T02:22:52.138Z,3.28
2023-01-20T02:25:47.893Z,2.85
2023-01-20T02:28:45.043Z,2.90
2023-01-20T02:31:51.531Z,2.83
2023-01-20T02:34:29.782Z,2.35
2023-01-20T02:37:06.158Z,3.03
2023-01-20T02:39:43.597Z,3.67
2023-01-20T02:42:16.079Z,3.00
2023-01-20T02:44:53.093Z,3.20
2023-01-20T02:47:32.489Z,3.08
2023-01-20T02:50:08.010Z,2.90
2023-01-20T02:52:40.439Z,3.20
2023-01-20T02:55:13.494Z,3.10
2023-01-20T02:57:47.806Z,3.10
2023-01-20T03:00:22.567Z,2.75
2023-01-20T03:02:55.298Z,3.05
2023-01-20T03:05:28.925Z,2.80
2023-01-20T03:08:01.259Z,2.88
2023-01-20T03:10:34.816Z,2.95
2023-01-20T03:13:10.321Z,3.45
2023-01-20T03:15:50.519Z,3.28
2023-01-20T03:18:21.633Z,3.33
2023-01-20T03:23:19.492Z,2.55
2023-01-20T03:25:50.999Z,2.78
2023-01-20T03:28:19.983Z,2.70
2023-01-20T03:30:49.087Z,2.20
2023-01-20T03:33:20.637Z,2.10
2023-01-20T03:35:50.669Z,2.45
2023-01-20T03:38:19.881Z,2.58
2023-01-20T03:40:58.014Z,3.20
2023-01-20T03:43:33.538Z,1.98
2023-01-20T03:46:07.125Z,2.28
2023-01-20T03:48:42.764Z,2.53
2023-01-20T03:51:19.305Z,2.38
2023-01-20T03:53:53.918Z,2.50
2023-01-20T03:56:27.652Z,2.38
2023-01-20T03:59:00.873Z,2.58
2023-01-20T04:01:35.639Z,3.00
2023-01-20T04:04:09.288Z,2.60
2023-01-20T04:06:41.084Z,2.25
2023-01-20T04:09:12.451Z,2.58
2023-01-20T04:11:41.616Z,2.25
2023-01-20T04:14:10.943Z,2.58
2023-01-20T04:16:40.000Z,2.50
2023-01-20T04:19:10.367Z,2.85
2023-01-20T04:21:46.603Z,2.67
2023-01-20T04:24:21.564Z,2.72
2023-01-20T04:26:50.563Z,2.80
2023-01-20T04:29:19.641Z,2.58
2023-01-20T04:31:48.615Z,2.47
2023-01-20T04:34:18.974Z,2.22
2023-01-20T04:36:47.918Z,3.03
2023-01-20T04:39:16.920Z,2.58
2023-01-20T04:41:45.911Z,2.33
2023-01-20T04:44:14.896Z,2.22
2023-01-20T04:46:44.113Z,2.50
2023-01-20T04:49:13.092Z,2.35
2023-01-20T04:51:43.502Z,2.00
2023-01-20T04:54:13.093Z,1.92
2023-01-20T04:56:42.151Z,1.60
2023-01-20T04:59:11.225Z,1.30
2023-01-20T05:01:40.368Z,1.60
2023-01-20T05:04:09.455Z,1.38
2023-01-20T05:06:38.493Z,1.42
2023-01-20T05:09:10.824Z,1.33
2023-01-20T05:11:39.807Z,1.50
2023-01-20T05:14:08.759Z,1.60
2023-01-20T05:16:37.721Z,2.00
2023-01-20T05:19:06.742Z,1.67
2023-01-20T05:21:35.706Z,1.73
2023-01-20T05:24:05.025Z,1.67
2023-01-20T05:26:35.415Z,1.48
2023-01-20T05:29:04.576Z,1.45
2023-01-20T05:31:33.664Z,1.20
2023-01-20T05:34:02.847Z,1.50
2023-01-20T05:36:32.869Z,1.52
2023-01-20T05:39:02.006Z,1.40
2023-01-20T05:41:30.983Z,1.20
2023-01-20T05:44:01.291Z,1.33
2023-01-20T05:46:30.367Z,1.10
2023-01-20T05:48:59.405Z,1.17
2023-01-20T05:51:28.775Z,1.35
2023-01-20T05:53:57.750Z,1.60
2023-01-20T05:56:26.747Z,1.60
2023-01-20T05:58:56.593Z,1.52
2023-01-20T06:01:27.050Z,1.25
2023-01-20T06:03:56.079Z,1.48
2023-01-20T06:06:25.079Z,1.50
2023-01-20T06:08:54.517Z,1.70
2023-01-20T06:11:23.980Z,1.30
2023-01-20T06:13:53.046Z,1.25
2023-01-20T06:16:22.159Z,1.55
2023-01-20T06:18:52.540Z,1.40
2023-01-20T06:21:21.542Z,1.80
2023-01-20T06:23:50.532Z,1.30
2023-01-20T06:26:19.608Z,1.13
2023-01-20T06:28:48.667Z,1.42
2023-01-20T06:31:18.021Z,1.30
2023-01-20T06:33:47.146Z,1.33
2023-01-20T06:36:17.785Z,1.30
2023-01-20T06:38:50.582Z,1.27
2023-01-20T06:41:20.792Z,1.20
2023-01-20T06:43:50.312Z,1.70
2023-01-20T06:46:19.522Z,1.60
2023-01-20T06:48:48.557Z,1.50
2023-01-20T06:51:21.268Z,1.50
2023-01-20T06:53:50.308Z,1.60
2023-01-20T06:56:19.281Z,1.88
2023-01-20T06:58:48.336Z,2.00
2023-01-20T07:01:22.836Z,1.88
2023-01-20T07:03:54.627Z,2.33
2023-01-20T07:06:29.568Z,1.70
2023-01-20T07:08:59.673Z,2.00
2023-01-20T07:11:28.790Z,2.08
2023-01-20T07:13:57.774Z,2.08
2023-01-20T07:16:26.819Z,1.65
2023-01-20T07:18:56.317Z,2.03
2023-01-20T07:21:27.040Z,2.17
2023-01-20T07:23:56.227Z,3.30
2023-01-20T07:26:26.666Z,2.65
2023-01-20T07:28:55.688Z,3.05
2023-01-20T07:31:26.419Z,2.70
2023-01-20T07:33:56.702Z,2.70
2023-01-20T07:36:27.382Z,1.52
2023-01-20T07:38:56.564Z,2.05
2023-01-20T07:41:25.542Z,2.15
2023-01-20T07:43:54.865Z,2.10
2023-01-20T07:46:23.835Z,2.08
2023-01-20T07:49:08.895Z,2.58
2023-01-20T07:51:40.468Z,2.60
2023-01-20T07:54:12.826Z,2.38
2023-01-20T07:56:43.405Z,2.70
2023-01-20T07:59:12.824Z,2.55
2023-01-20T08:01:43.788Z,2.33
2023-01-20T08:04:14.372Z,3.22
2023-01-20T08:06:44.880Z,2.35
2023-01-20T08:09:14.802Z,2.83
2023-01-20T08:11:43.827Z,2.75
2023-01-20T08:14:12.831Z,3.05
2023-01-20T08:16:41.822Z,3.22
2023-01-20T08:19:10.839Z,3.30
2023-01-20T08:21:39.833Z,3.53
2023-01-20T08:24:11.996Z,2.90
2023-01-20T08:26:41.121Z,2.92
2023-01-20T08:29:11.269Z,2.83
2023-01-20T08:31:41.470Z,3.10
2023-01-20T08:34:10.581Z,2.97
2023-01-20T08:36:41.997Z,3.22
2023-01-20T08:39:15.738Z,3.92
2023-01-20T08:41:46.244Z,3.97
2023-01-20T08:44:16.419Z,3.40
2023-01-20T08:46:46.451Z,3.53
2023-01-20T08:49:17.934Z,3.50
2023-01-20T08:51:46.935Z,3.38
2023-01-20T08:54:17.474Z,4.03
2023-01-20T08:56:46.581Z,3.70
2023-01-20T08:59:15.525Z,3.83
2023-01-20T09:01:44.508Z,4.25
2023-01-20T09:04:14.045Z,4.55
2023-01-20T09:06:46.111Z,4.30
2023-01-20T09:09:18.103Z,4.57
2023-01-20T09:11:51.327Z,4.50
2023-01-20T09:14:21.066Z,4.60
2023-01-20T09:16:50.060Z,4.90
2023-01-20T09:19:19.106Z,4.47
2023-01-20T09:21:48.158Z,4.13
2023-01-20T09:24:18.971Z,4.30
2023-01-20T09:26:49.029Z,4.05
2023-01-20T09:29:19.995Z,4.28
2023-01-20T09:31:52.412Z,4.07
2023-01-20T09:34:25.078Z,4.35
2023-01-20T09:36:54.715Z,3.95
2023-01-20T09:39:45.307Z,4.30
2023-01-20T09:42:42.959Z,4.30
2023-01-20T09:45:25.177Z,4.18
2023-01-20T09:48:04.948Z,4.50
2023-01-20T09:51:02.052Z,3.53
2023-01-20T09:53:40.949Z,3.97
2023-01-20T09:56:16.548Z,4.22
2023-01-20T09:58:52.746Z,5.20
2023-01-20T10:01:30.724Z,8.90
2023-01-20T10:04:07.328Z,10.40
2023-01-20T10:06:41.619Z,8.02
2023-01-20T10:09:21.506Z,10.65
2023-01-20T10:11:56.509Z,11.77
2023-01-20T10:14:32.936Z,11.95
2023-01-20T10:17:09.212Z,12.10
2023-01-20T10:19:43.576Z,11.20
2023-01-20T10:22:18.812Z,11.35
2023-01-20T10:24:55.574Z,9.50
2023-01-20T10:27:29.926Z,8.98
2023-01-20T10:30:06.839Z,6.05
2023-01-20T10:32:38.035Z,7.50
2023-01-20T10:37:44.743Z,8.43
2023-01-20T10:40:28.047Z,6.13
2023-01-20T10:43:00.864Z,5.50
2023-01-20T10:45:41.164Z,5.30
2023-01-20T10:48:20.899Z,4.95
2023-01-20T10:50:56.051Z,4.30
2023-01-20T10:53:35.741Z,4.38
2023-01-20T10:56:27.884Z,3.08
2023-01-20T10:59:00.702Z,3.10
2023-01-20T11:01:29.808Z,2.55
2023-01-20T11:04:00.469Z,3.45
2023-01-20T11:06:29.543Z,3.20
2023-01-20T11:09:03.884Z,3.15
2023-01-20T11:11:33.326Z,2.90
2023-01-20T11:14:03.985Z,3.20
2023-01-20T11:16:33.129Z,3.88
2023-01-20T11:19:03.814Z,3.30
2023-01-20T11:21:36.654Z,4.25
2023-01-20T11:24:29.259Z,4.65
2023-01-20T11:27:05.151Z,3.85
2023-01-20T11:29:42.138Z,3.70
2023-01-20T11:32:30.280Z,3.72
2023-01-20T11:35:00.202Z,3.42
2023-01-20T11:37:37.552Z,4.28
2023-01-20T11:40:25.608Z,3.15
2023-01-20T11:42:55.695Z,3.13
2023-01-20T11:45:30.360Z,2.22
2023-01-20T11:48:18.925Z,1.67
2023-01-20T11:50:50.327Z,1.52
2023-01-20T11:53:23.506Z,1.48
2023-01-20T11:55:57.793Z,1.27
2023-01-20T11:58:32.191Z,1.33
2023-01-20T12:01:05.290Z,1.02
2023-01-20T12:04:20.288Z,0.98
2023-01-20T12:06:57.117Z,1.63
2023-01-20T12:09:30.821Z,1.50
2023-01-20T12:12:02.968Z,1.45
2023-01-20T12:14:35.623Z,1.50
2023-01-20T12:17:31.768Z,1.73
2023-01-20T12:20:12.428Z,0.80
2023-01-20T12:22:49.277Z,1.42
2023-01-20T12:25:21.662Z,1.33
2023-01-20T12:27:55.451Z,1.00
2023-01-20T12:30:48.752Z,1.20
2023-01-20T12:33:23.553Z,1.40
2023-01-20T12:36:20.019Z,1.05
2023-01-20T12:39:09.870Z,1.45
2023-01-20T12:41:57.073Z,1.30
2023-01-20T12:44:31.905Z,1.27
2023-01-20T12:47:08.152Z,1.40
2023-01-20T12:49:53.089Z,1.60
2023-01-20T12:52:32.550Z,1.48
2023-01-20T12:55:24.314Z,3.15
2023-01-20T12:58:04.278Z,1.48
2023-01-20T13:00:48.809Z,1.42
2023-01-20T13:03:49.828Z,1.65
2023-01-20T13:06:33.296Z,1.42
2023-01-20T13:09:26.724Z,1.95
2023-01-20T13:12:07.709Z,1.27
2023-01-20T13:14:42.289Z,1.30
2023-01-20T13:17:24.527Z,1.40
2023-01-20T13:19:58.703Z,1.48
2023-01-20T13:22:29.322Z,1.23
2023-01-20T13:25:04.799Z,1.40
2023-01-20T13:27:35.939Z,1.40
2023-01-20T13:30:06.903Z,1.60
2023-01-20T13:32:37.711Z,1.40
2023-01-20T13:35:43.264Z,1.17
2023-01-20T13:38:24.066Z,1.33
2023-01-20T13:40:56.489Z,1.15
2023-01-20T13:46:53.673Z,1.13
2023-01-20T13:49:29.765Z,1.13
2023-01-20T13:51:58.775Z,1.58
2023-01-20T13:54:46.322Z,1.30
2023-01-20T13:57:34.080Z,1.35
2023-01-20T14:00:03.833Z,1.60
2023-01-20T14:02:40.623Z,1.75
2023-01-20T14:05:33.623Z,1.15
2023-01-20T14:08:02.686Z,1.27
2023-01-20T14:10:33.482Z,1.60
2023-01-20T14:13:02.496Z,1.50
2023-01-20T14:15:38.630Z,1.38
2023-01-20T14:18:16.206Z,1.30
2023-01-20T14:20:56.835Z,1.65
2023-01-20T14:23:31.596Z,1.45
2023-01-20T14:26:05.742Z,1.25
2023-01-20T14:28:35.719Z,1.20
2023-01-20T14:31:18.279Z,1.30
2023-01-20T14:33:49.334Z,1.02
2023-01-20T14:36:20.675Z,1.30
2023-01-20T14:41:34.796Z,1.10
2023-01-20T14:44:03.952Z,2.30
2023-01-20T14:46:35.414Z,1.58
2023-01-20T14:49:05.855Z,1.73
2023-01-20T14:51:35.062Z,1.05
2023-01-20T14:54:29.662Z,1.52
2023-01-20T14:57:02.713Z,1.60
2023-01-20T14:59:31.698Z,1.35
2023-01-20T15:02:07.303Z,1.77
2023-01-20T15:04:37.374Z,1.50
2023-01-20T15:07:06.625Z,1.95
2023-01-20T15:09:36.543Z,1.70
2023-01-20T15:12:36.372Z,1.85
2023-01-20T15:15:16.085Z,2.33
2023-01-20T15:18:08.818Z,2.25
2023-01-20T15:20:40.335Z,3.05
2023-01-20T15:23:15.839Z,3.78
2023-01-20T15:25:44.898Z,3.50
2023-01-20T15:28:28.226Z,4.50
2023-01-20T15:30:59.147Z,2.88
2023-01-20T15:33:28.203Z,2.80
2023-01-20T15:35:59.056Z,2.95
2023-01-20T15:38:32.191Z,2.60
2023-01-20T15:41:01.171Z,7.63
2023-01-20T15:43:31.603Z,9.38
2023-01-20T15:46:00.639Z,4.20
2023-01-20T15:48:29.676Z,7.70
2023-01-20T15:50:58.694Z,5.15
2023-01-20T15:53:27.781Z,4.72
2023-01-20T15:55:56.811Z,4.72
2023-01-20T15:58:28.022Z,4.70
2023-01-20T16:03:29.171Z,5.65
2023-01-20T16:05:58.132Z,6.83
2023-01-20T16:08:35.011Z,6.32
2023-01-20T16:11:04.132Z,7.07
2023-01-20T16:13:33.214Z,9.75
2023-01-20T16:16:04.155Z,7.78
2023-01-20T16:18:33.293Z,6.60
2023-01-20T16:21:02.634Z,6.22
2023-01-20T16:23:31.899Z,7.90
2023-01-20T16:26:00.911Z,6.00
2023-01-20T16:28:29.998Z,4.10
2023-01-20T16:31:00.187Z,6.53
2023-01-20T16:33:30.559Z,7.57
2023-01-20T16:35:59.568Z,6.22
2023-01-20T16:38:28.554Z,5.70
2023-01-20T16:41:03.782Z,5.10
2023-01-20T16:43:32.762Z,5.28
2023-01-20T16:46:01.849Z,6.13
2023-01-20T16:48:32.323Z,8.10
2023-01-20T16:51:05.492Z,12.30
2023-01-20T16:53:34.589Z,26.50
2023-01-20T16:56:03.600Z,12.63
2023-01-20T16:58:32.589Z,7.97
2023-01-20T17:01:12.135Z,8.27
2023-01-20T17:03:43.512Z,6.03
2023-01-20T17:08:44.800Z,17.40
2023-01-20T17:11:18.156Z,18.58
2023-01-20T17:13:47.433Z,22.17
2023-01-20T17:16:17.060Z,29.70
2023-01-20T17:18:50.057Z,26.30
2023-01-20T17:21:20.673Z,22.90
2023-01-20T17:23:52.052Z,33.60
2023-01-20T17:26:21.835Z,39.35
2023-01-20T17:28:55.090Z,37.72
2023-01-20T17:31:24.622Z,17.90
2023-01-20T17:33:55.024Z,17.42
2023-01-20T17:36:24.074Z,14.43
2023-01-20T17:38:53.069Z,14.02
2023-01-20T17:41:22.068Z,12.52
2023-01-20T17:43:51.077Z,39.17
2023-01-20T17:46:22.280Z,28.08
2023-01-20T17:51:23.591Z,18.73
2023-01-20T17:53:53.252Z,19.73
2023-01-20T17:56:23.538Z,20.10
2023-01-20T17:58:52.537Z,20.20
2023-01-20T18:01:23.900Z,21.10
2023-01-20T18:03:54.487Z,22.75
2023-01-20T18:06:26.513Z,21.08
2023-01-20T18:08:56.916Z,22.17
2023-01-20T18:11:27.378Z,20.83
2023-01-20T18:13:58.733Z,17.25
2023-01-20T18:16:29.987Z,13.80
2023-01-20T18:21:31.237Z,12.30
2023-01-20T18:24:00.984Z,12.50
2023-01-20T18:26:32.561Z,11.50
2023-01-20T18:29:03.578Z,12.25
2023-01-20T18:31:33.967Z,11.55
2023-01-20T18:34:04.994Z,10.23
2023-01-20T18:36:37.421Z,10.00
2023-01-20T18:39:08.247Z,7.80
2023-01-20T18:41:38.246Z,6.70
2023-01-20T18:44:07.655Z,9.48
2023-01-20T18:46:36.985Z,9.90
2023-01-20T18:49:09.305Z,11.88
2023-01-20T18:51:40.204Z,13.23
2023-01-20T18:54:11.878Z,11.77
2023-01-20T18:56:40.967Z,18.00
2023-01-20T18:59:10.059Z,25.90
2023-01-20T19:01:40.978Z,65.15
2023-01-20T19:04:12.010Z,159.32
2023-01-20T19:06:43.921Z,106.25
2023-01-20T19:09:13.598Z,133.13
2023-01-20T19:11:43.474Z,79.47
2023-01-20T19:14:14.949Z,45.45
2023-01-20T19:16:45.546Z,34.50
2023-01-20T19:19:15.668Z,26.95
2023-01-20T19:21:46.367Z,16.15
2023-01-20T19:24:20.117Z,12.95
2023-01-20T19:26:49.262Z,14.68
2023-01-20T19:29:19.018Z,10.40
2023-01-20T19:31:49.216Z,7.43
2023-01-20T19:34:18.333Z,9.70
2023-01-20T19:36:48.694Z,8.50
2023-01-20T19:39:17.825Z,8.43
2023-01-20T19:41:46.795Z,9.30
2023-01-20T19:44:16.877Z,9.80
2023-01-20T19:46:46.212Z,7.00
2023-01-20T19:49:15.205Z,8.68
2023-01-20T19:51:44.247Z,7.00
2023-01-20T19:54:15.229Z,7.05
2023-01-20T19:56:44.698Z,7.60
2023-01-20T19:59:15.186Z,6.72
2023-01-20T20:01:44.354Z,8.77
2023-01-20T20:04:14.179Z,8.70
2023-01-20T20:06:47.828Z,6.25
2023-01-20T20:09:21.288Z,5.22
2023-01-20T20:11:50.929Z,6.68
2023-01-20T20:14:22.998Z,7.05
2023-01-20T20:16:52.278Z,7.10
2023-01-20T20:19:21.545Z,8.13
2023-01-20T20:21:50.584Z,14.60
2023-01-20T20:24:21.078Z,19.60
2023-01-20T20:26:50.147Z,18.27
2023-01-20T20:29:20.028Z,19.83
2023-01-20T20:31:49.165Z,17.15
2023-01-20T20:34:19.760Z,13.20
2023-01-20T20:36:49.129Z,8.43
2023-01-20T20:39:20.670Z,12.40
2023-01-20T20:41:49.832Z,13.18
2023-01-20T20:44:19.059Z,13.05
2023-01-20T20:46:48.653Z,10.98
2023-01-20T20:49:18.029Z,9.82
2023-01-20T20:51:47.051Z,11.90
2023-01-20T20:54:17.207Z,11.15
2023-01-20T20:56:48.263Z,11.20
2023-01-20T20:59:19.740Z,11.02
2023-01-20T21:01:48.891Z,10.23
2023-01-20T21:04:17.983Z,11.13
2023-01-20T21:06:46.997Z,16.55
2023-01-20T21:09:16.021Z,9.90
2023-01-20T21:11:45.072Z,36.80
2023-01-20T21:14:15.684Z,64.22
2023-01-20T21:16:44.918Z,120.28
2023-01-20T21:19:14.297Z,81.20
2023-01-20T21:21:43.326Z,64.03
2023-01-20T21:24:14.062Z,52.65
2023-01-20T21:26:43.183Z,25.10
2023-01-20T21:29:12.542Z,15.85
2023-01-20T21:31:42.994Z,12.15
2023-01-20T21:34:15.437Z,11.15
2023-01-20T21:36:44.460Z,9.48
2023-01-20T21:39:14.978Z,6.80
2023-01-20T21:41:44.438Z,6.07
2023-01-20T21:44:28.339Z,6.70
2023-01-20T21:46:59.931Z,6.18
2023-01-20T21:49:46.929Z,5.72
2023-01-20T21:52:37.395Z,5.50
2023-01-20T21:55:08.765Z,6.23
2023-01-20T21:57:38.755Z,6.78
2023-01-20T22:00:09.713Z,4.85
2023-01-20T22:02:44.848Z,6.10
2023-01-20T22:05:14.492Z,5.00
2023-01-20T22:07:43.455Z,5.93
2023-01-20T22:10:12.941Z,6.15
2023-01-20T22:12:41.943Z,7.00
2023-01-20T22:15:11.680Z,5.97
2023-01-20T22:17:42.949Z,5.57
2023-01-20T22:22:41.058Z,5.50
2023-01-20T22:25:10.711Z,5.40
2023-01-20T22:27:39.653Z,4.93
2023-01-20T22:30:09.839Z,4.93
2023-01-20T22:32:38.884Z,5.38
2023-01-20T22:35:09.857Z,5.15
2023-01-20T22:37:38.798Z,5.68
2023-01-20T22:40:08.431Z,5.28
2023-01-20T22:42:37.494Z,5.93
2023-01-20T22:45:07.377Z,5.35
2023-01-20T22:47:36.359Z,4.78
2023-01-20T22:50:05.948Z,4.70
2023-01-20T22:52:36.351Z,4.72
2023-01-20T22:55:05.803Z,4.82
2023-01-20T22:57:34.764Z,4.80
2023-01-20T23:00:03.897Z,3.85
2023-01-20T23:02:33.005Z,4.13
2023-01-20T23:05:02.062Z,4.13
2023-01-20T23:07:31.005Z,3.80
2023-01-20T23:10:01.385Z,3.70
2023-01-20T23:12:30.425Z,3.80
2023-01-20T23:15:02.968Z,3.40
2023-01-20T23:17:33.856Z,3.42
2023-01-20T23:20:02.945Z,3.42
2023-01-20T23:22:31.925Z,3.40
2023-01-20T23:25:02.293Z,3.40
2023-01-20T23:27:31.275Z,2.80
2023-01-20T23:30:01.608Z,3.33
2023-01-20T23:32:36.018Z,2.87
2023-01-20T23:35:06.697Z,3.05
2023-01-20T23:37:35.660Z,2.70
2023-01-20T23:40:06.884Z,2.97
2023-01-20T23:45:04.760Z,2.83
2023-01-20T23:47:33.763Z,2.83
2023-01-20T23:50:02.813Z,2.60
2023-01-20T23:52:31.784Z,3.33
2023-01-20T23:55:01.256Z,3.50
2023-01-20T23:57:31.615Z,2.78
